This is the latest recevied weather packets stored in our database for station/object N9MXT-13. If no packets are shown the sender has not sent any weather packets the latest 10 day(s).
| Time | Temp. | Humidity | Pressure | Rain* | Wind** | Luminosity | Snow |
|---|---|---|---|---|---|---|---|
| 1778178899 | 12.78° C | 58% | 1011.1 hPa | 0 mm | - | - | - |
| 1778169899 | 12.78° C | 46% | 1013.4 hPa | 0 mm | - | - | - |
| 1778169299 | 12.22° C | 44% | 1013.5 hPa | 0 mm | - | - | - |
| 1778168099 | 11.67° C | 45% | 1013.8 hPa | 0 mm | - | - | - |
| 1778166004 | 10.56° C | 48% | 1014.5 hPa | 0 mm | - | - | - |
| 1778165399 | 10° C | 49% | 1014.6 hPa | 0 mm | - | - | - |
| 1778164499 | 9.44° C | 51% | 1015 hPa | 0 mm | - | - | - |
| 1778155499 | 2.22° C | 75% | 1015.3 hPa | 0 mm | - | - | - |
| 1778154602 | 1.67° C | 78% | 1015.3 hPa | 0 mm | - | - | - |
| 1778154299 | 1.67° C | 78% | 1015.3 hPa | 0 mm | - | - | - |
| 1778150099 | 0.56° C | 77% | 1014.9 hPa | 0 mm | - | - | - |
| 1778148599 | 1.11° C | 76% | 1014.9 hPa | 0 mm | - | - | - |
| 1778146497 | 0.56° C | 77% | 1015.1 hPa | 0 mm | - | - | - |
| 1778144404 | 1.11° C | 75% | 1015 hPa | 0 mm | - | - | - |
| 1778142299 | 1.11° C | 76% | 1015.1 hPa | 0 mm | - | - | - |
| 1778141399 | 1.11° C | 76% | 1015 hPa | 0 mm | - | - | - |
| 1778141099 | 1.67° C | 76% | 1015 hPa | 0 mm | - | - | - |
| 1778139599 | 1.67° C | 75% | 1015.3 hPa | 0 mm | - | - | - |
| 1778137499 | 2.22° C | 77% | 1015.6 hPa | 0 mm | - | - | - |
| 1778133899 | 2.78° C | 70% | 1015.7 hPa | 0 mm | - | - | - |
| 1778133001 | 2.78° C | 70% | 1015.7 hPa | 0 mm | - | - | - |
| 1778129400 | 3.33° C | 68% | 1015.7 hPa | 0 mm | - | - | - |
| 1778127003 | 4.44° C | 65% | 1015.7 hPa | 0 mm | - | - | - |
| 1778126404 | 4.44° C | 65% | 1015.7 hPa | 0 mm | - | - | - |
| 1778123701 | 5.56° C | 60% | 1015.8 hPa | 0 mm | - | - | - |
* Rain latest hour (hover to see other rain measurements)
** Current wind speed in m/s (hover to see current wind gust speed)